sensor_id;sensor_type;location;lat;lon;timestamp;P1;durP1;ratioP1;P2;durP2;ratioP2
26838;SDS011;40088;51.214;6.786;2022-08-19T00:00:18;16.33;;;12.45;;
26838;SDS011;40088;51.214;6.786;2022-08-19T00:10:19;16.30;;;11.90;;
26838;SDS011;40088;51.214;6.786;2022-08-19T00:20:21;14.55;;;11.60;;
26838;SDS011;40088;51.214;6.786;2022-08-19T00:30:21;16.17;;;11.82;;
26838;SDS011;40088;51.214;6.786;2022-08-19T00:40:22;12.13;;;9.43;;
26838;SDS011;40088;51.214;6.786;2022-08-19T00:50:22;13.80;;;10.27;;
26838;SDS011;40088;51.214;6.786;2022-08-19T01:00:24;11.55;;;9.60;;
26838;SDS011;40088;51.214;6.786;2022-08-19T01:10:27;12.87;;;9.67;;
26838;SDS011;40088;51.214;6.786;2022-08-19T01:20:30;11.80;;;9.18;;
26838;SDS011;40088;51.214;6.786;2022-08-19T01:30:31;11.13;;;9.20;;
26838;SDS011;40088;51.214;6.786;2022-08-19T01:40:35;12.80;;;10.48;;
26838;SDS011;40088;51.214;6.786;2022-08-19T01:50:37;11.30;;;10.10;;
26838;SDS011;40088;51.214;6.786;2022-08-19T02:00:37;11.75;;;10.18;;
26838;SDS011;40088;51.214;6.786;2022-08-19T02:10:39;11.00;;;9.13;;
26838;SDS011;40088;51.214;6.786;2022-08-19T02:20:41;11.25;;;9.93;;
26838;SDS011;40088;51.214;6.786;2022-08-19T02:30:43;11.18;;;9.70;;
26838;SDS011;40088;51.214;6.786;2022-08-19T02:40:50;10.48;;;9.35;;
26838;SDS011;40088;51.214;6.786;2022-08-19T02:50:55;12.15;;;10.13;;
26838;SDS011;40088;51.214;6.786;2022-08-19T03:00:56;12.85;;;11.38;;
26838;SDS011;40088;51.214;6.786;2022-08-19T03:10:57;15.43;;;12.30;;
26838;SDS011;40088;51.214;6.786;2022-08-19T03:20:57;15.20;;;13.60;;
26838;SDS011;40088;51.214;6.786;2022-08-19T03:30:59;17.67;;;15.35;;
26838;SDS011;40088;51.214;6.786;2022-08-19T03:41:02;18.17;;;16.33;;
26838;SDS011;40088;51.214;6.786;2022-08-19T03:51:06;20.58;;;18.30;;
26838;SDS011;40088;51.214;6.786;2022-08-19T04:01:08;20.33;;;18.17;;
26838;SDS011;40088;51.214;6.786;2022-08-19T04:11:14;21.95;;;18.83;;
26838;SDS011;40088;51.214;6.786;2022-08-19T04:21:18;23.00;;;19.48;;
26838;SDS011;40088;51.214;6.786;2022-08-19T04:31:24;24.10;;;21.45;;
26838;SDS011;40088;51.214;6.786;2022-08-19T04:41:27;25.38;;;22.45;;
26838;SDS011;40088;51.214;6.786;2022-08-19T04:51:46;27.25;;;22.80;;
26838;SDS011;40088;51.214;6.786;2022-08-19T05:01:47;26.55;;;23.65;;
26838;SDS011;40088;51.214;6.786;2022-08-19T05:11:49;31.58;;;26.10;;
26838;SDS011;40088;51.214;6.786;2022-08-19T05:32:12;29.05;;;25.75;;
26838;SDS011;40088;51.214;6.786;2022-08-19T05:42:12;28.40;;;25.42;;
26838;SDS011;40088;51.214;6.786;2022-08-19T05:52:13;29.40;;;26.27;;
26838;SDS011;40088;51.214;6.786;2022-08-19T06:02:18;30.00;;;26.75;;
26838;SDS011;40088;51.214;6.786;2022-08-19T06:12:18;32.10;;;28.48;;
26838;SDS011;40088;51.214;6.786;2022-08-19T06:22:18;33.13;;;28.35;;
26838;SDS011;40088;51.214;6.786;2022-08-19T06:32:19;36.72;;;29.58;;
26838;SDS011;40088;51.214;6.786;2022-08-19T06:42:19;33.25;;;28.17;;
26838;SDS011;40088;51.214;6.786;2022-08-19T06:52:19;33.65;;;28.15;;
26838;SDS011;40088;51.214;6.786;2022-08-19T07:02:19;33.60;;;28.73;;
26838;SDS011;40088;51.214;6.786;2022-08-19T07:12:20;33.20;;;27.90;;
26838;SDS011;40088;51.214;6.786;2022-08-19T07:22:21;31.63;;;28.13;;
26838;SDS011;40088;51.214;6.786;2022-08-19T07:32:22;34.78;;;28.90;;
26838;SDS011;40088;51.214;6.786;2022-08-19T07:42:26;31.73;;;27.08;;
26838;SDS011;40088;51.214;6.786;2022-08-19T07:52:29;28.73;;;24.38;;
26838;SDS011;40088;51.214;6.786;2022-08-19T08:02:30;30.37;;;23.53;;
26838;SDS011;40088;51.214;6.786;2022-08-19T08:12:32;25.70;;;21.58;;
26838;SDS011;40088;51.214;6.786;2022-08-19T08:22:44;29.02;;;23.13;;
26838;SDS011;40088;51.214;6.786;2022-08-19T08:33:04;33.73;;;22.93;;
26838;SDS011;40088;51.214;6.786;2022-08-19T08:53:26;62.92;;;50.42;;
26838;SDS011;40088;51.214;6.786;2022-08-19T09:03:27;55.65;;;45.58;;
26838;SDS011;40088;51.214;6.786;2022-08-19T09:13:42;48.67;;;41.17;;
26838;SDS011;40088;51.214;6.786;2022-08-19T09:23:52;45.60;;;38.97;;
26838;SDS011;40088;51.214;6.786;2022-08-19T09:33:53;42.20;;;34.33;;
26838;SDS011;40088;51.214;6.786;2022-08-19T09:43:57;38.88;;;32.60;;
26838;SDS011;40088;51.214;6.786;2022-08-19T09:53:59;35.80;;;30.90;;
26838;SDS011;40088;51.214;6.786;2022-08-19T10:04:01;29.90;;;25.23;;
26838;SDS011;40088;51.214;6.786;2022-08-19T10:14:04;33.03;;;29.30;;
26838;SDS011;40088;51.214;6.786;2022-08-19T10:24:08;28.33;;;23.75;;
26838;SDS011;40088;51.214;6.786;2022-08-19T10:34:08;27.50;;;22.75;;
26838;SDS011;40088;51.214;6.786;2022-08-19T10:44:10;25.38;;;22.58;;
26838;SDS011;40088;51.214;6.786;2022-08-19T10:54:11;25.97;;;21.63;;
26838;SDS011;40088;51.214;6.786;2022-08-19T11:04:12;26.17;;;20.60;;
26838;SDS011;40088;51.214;6.786;2022-08-19T11:14:15;20.63;;;18.10;;
26838;SDS011;40088;51.214;6.786;2022-08-19T11:24:20;25.98;;;16.58;;
26838;SDS011;40088;51.214;6.786;2022-08-19T11:34:24;21.63;;;16.58;;
26838;SDS011;40088;51.214;6.786;2022-08-19T11:44:28;22.20;;;19.65;;
26838;SDS011;40088;51.214;6.786;2022-08-19T11:54:30;25.88;;;16.95;;
26838;SDS011;40088;51.214;6.786;2022-08-19T12:04:30;23.80;;;15.37;;
26838;SDS011;40088;51.214;6.786;2022-08-19T12:14:31;27.63;;;15.85;;
26838;SDS011;40088;51.214;6.786;2022-08-19T12:24:32;20.88;;;14.48;;
26838;SDS011;40088;51.214;6.786;2022-08-19T12:34:32;22.93;;;13.70;;
26838;SDS011;40088;51.214;6.786;2022-08-19T12:44:33;22.38;;;14.73;;
26838;SDS011;40088;51.214;6.786;2022-08-19T12:54:34;21.10;;;13.95;;
26838;SDS011;40088;51.214;6.786;2022-08-19T13:04:35;29.20;;;16.63;;
26838;SDS011;40088;51.214;6.786;2022-08-19T13:14:37;26.63;;;14.53;;
26838;SDS011;40088;51.214;6.786;2022-08-19T13:24:40;28.47;;;14.23;;
26838;SDS011;40088;51.214;6.786;2022-08-19T13:34:40;19.63;;;12.90;;
26838;SDS011;40088;51.214;6.786;2022-08-19T13:44:40;20.10;;;12.40;;
26838;SDS011;40088;51.214;6.786;2022-08-19T13:54:41;18.45;;;11.77;;
26838;SDS011;40088;51.214;6.786;2022-08-19T14:04:41;19.55;;;12.00;;
26838;SDS011;40088;51.214;6.786;2022-08-19T14:14:41;14.93;;;10.68;;
26838;SDS011;40088;51.214;6.786;2022-08-19T14:24:41;14.65;;;9.25;;
26838;SDS011;40088;51.214;6.786;2022-08-19T14:34:42;13.32;;;8.68;;
26838;SDS011;40088;51.214;6.786;2022-08-19T14:44:45;23.95;;;15.73;;
26838;SDS011;40088;51.214;6.786;2022-08-19T14:54:45;30.88;;;19.92;;
26838;SDS011;40088;51.214;6.786;2022-08-19T15:04:46;31.25;;;22.00;;
26838;SDS011;40088;51.214;6.786;2022-08-19T15:14:46;45.85;;;31.23;;
26838;SDS011;40088;51.214;6.786;2022-08-19T15:24:50;36.10;;;22.67;;
26838;SDS011;40088;51.214;6.786;2022-08-19T15:34:50;31.50;;;22.90;;
26838;SDS011;40088;51.214;6.786;2022-08-19T15:44:50;27.83;;;20.27;;
26838;SDS011;40088;51.214;6.786;2022-08-19T15:54:51;25.65;;;19.05;;
26838;SDS011;40088;51.214;6.786;2022-08-19T16:04:51;24.63;;;19.23;;
26838;SDS011;40088;51.214;6.786;2022-08-19T16:15:11;22.92;;;17.13;;
26838;SDS011;40088;51.214;6.786;2022-08-19T16:25:15;21.63;;;16.50;;
26838;SDS011;40088;51.214;6.786;2022-08-19T16:35:15;20.67;;;14.70;;
26838;SDS011;40088;51.214;6.786;2022-08-19T16:45:15;19.27;;;14.30;;
26838;SDS011;40088;51.214;6.786;2022-08-19T16:55:18;15.73;;;12.40;;
26838;SDS011;40088;51.214;6.786;2022-08-19T17:05:21;12.07;;;9.93;;
26838;SDS011;40088;51.214;6.786;2022-08-19T17:15:21;14.00;;;10.90;;
26838;SDS011;40088;51.214;6.786;2022-08-19T17:25:22;10.68;;;9.57;;
26838;SDS011;40088;51.214;6.786;2022-08-19T17:35:23;14.43;;;10.27;;
26838;SDS011;40088;51.214;6.786;2022-08-19T17:45:26;11.35;;;9.07;;
26838;SDS011;40088;51.214;6.786;2022-08-19T17:55:27;11.23;;;9.70;;
26838;SDS011;40088;51.214;6.786;2022-08-19T18:05:29;9.57;;;8.50;;
26838;SDS011;40088;51.214;6.786;2022-08-19T18:15:31;11.77;;;9.93;;
26838;SDS011;40088;51.214;6.786;2022-08-19T18:25:32;11.13;;;9.25;;
26838;SDS011;40088;51.214;6.786;2022-08-19T18:35:32;9.52;;;8.10;;
26838;SDS011;40088;51.214;6.786;2022-08-19T18:45:32;9.32;;;8.00;;
26838;SDS011;40088;51.214;6.786;2022-08-19T18:55:51;10.32;;;8.82;;
26838;SDS011;40088;51.214;6.786;2022-08-19T19:05:52;11.50;;;8.07;;
26838;SDS011;40088;51.214;6.786;2022-08-19T19:15:53;12.77;;;7.67;;
26838;SDS011;40088;51.214;6.786;2022-08-19T19:25:54;9.10;;;8.13;;
26838;SDS011;40088;51.214;6.786;2022-08-19T19:35:54;12.85;;;11.55;;
26838;SDS011;40088;51.214;6.786;2022-08-19T19:45:55;13.30;;;11.40;;
26838;SDS011;40088;51.214;6.786;2022-08-19T19:55:56;30.02;;;22.67;;
26838;SDS011;40088;51.214;6.786;2022-08-19T20:06:01;11.63;;;9.10;;
26838;SDS011;40088;51.214;6.786;2022-08-19T20:16:01;16.95;;;11.75;;
26838;SDS011;40088;51.214;6.786;2022-08-19T20:26:02;12.68;;;11.20;;
26838;SDS011;40088;51.214;6.786;2022-08-19T20:36:05;59.40;;;52.97;;
26838;SDS011;40088;51.214;6.786;2022-08-19T20:46:05;59.83;;;53.42;;
26838;SDS011;40088;51.214;6.786;2022-08-19T20:56:06;51.50;;;46.22;;
26838;SDS011;40088;51.214;6.786;2022-08-19T21:06:07;55.00;;;49.00;;
26838;SDS011;40088;51.214;6.786;2022-08-19T21:16:11;51.15;;;45.85;;
26838;SDS011;40088;51.214;6.786;2022-08-19T21:26:12;41.45;;;37.05;;
26838;SDS011;40088;51.214;6.786;2022-08-19T21:36:12;30.08;;;26.95;;
26838;SDS011;40088;51.214;6.786;2022-08-19T21:46:12;27.88;;;24.98;;
26838;SDS011;40088;51.214;6.786;2022-08-19T21:56:13;30.15;;;27.13;;
26838;SDS011;40088;51.214;6.786;2022-08-19T22:06:13;23.13;;;20.73;;
26838;SDS011;40088;51.214;6.786;2022-08-19T22:16:15;29.48;;;26.42;;
26838;SDS011;40088;51.214;6.786;2022-08-19T22:26:17;27.50;;;24.60;;
26838;SDS011;40088;51.214;6.786;2022-08-19T22:36:17;26.50;;;23.80;;
26838;SDS011;40088;51.214;6.786;2022-08-19T22:46:19;25.17;;;22.48;;
26838;SDS011;40088;51.214;6.786;2022-08-19T22:56:19;25.65;;;22.95;;
26838;SDS011;40088;51.214;6.786;2022-08-19T23:06:19;24.45;;;20.75;;
26838;SDS011;40088;51.214;6.786;2022-08-19T23:16:19;19.70;;;17.73;;
26838;SDS011;40088;51.214;6.786;2022-08-19T23:26:20;18.35;;;16.50;;
26838;SDS011;40088;51.214;6.786;2022-08-19T23:36:20;16.33;;;14.63;;
26838;SDS011;40088;51.214;6.786;2022-08-19T23:46:21;17.85;;;16.05;;
26838;SDS011;40088;51.214;6.786;2022-08-19T23:56:22;16.33;;;14.63;;
